Portada
METAR-TAF:

METAR-TAF

Aeroports :

Semei, Kazakhstan

latitud: 50-21-05N, longitud: 080-14-04E, altitud: 232 m

Observació

L'informe es va fer fa 3 hores i 0 minuts, a les 12:30 UTC
Vent 12 kt del Nord-Est
Temperatura 11°C
Humitat 35%
Pressió 1031 hPa
Visibilitat 10 km o més
sense núvols per sota de 1500 mi sense presència de cumulonimbus.

METAR: UASS 131230Z 05006MPS CAVOK 11/M04 Q1031 NOSIG RMK QFE752/1003

Hora: 21:30 (15:30 UTC)

Pronòstic

L'informe es va fer fa 4 hores i 30 minuts, a les 11:00 UTC
Pronòstic vàlid del 13 a les 12 UTC al 13 a les 21 UTC
Vent 14 kt del Nord/Nord-Oest amb ràfegues de 23 kt
Visibilitat 10 km o més
sense núvols per sota de 1500 mi sense presència de cumulonimbus.

TAF: UASS 131100Z 1312/1321 34007G12MPS CAVOK

Observacions i pronòstics meteorològics de més de 4000 aeroports (METAR i TAF).

Les estacions disponibles són els punts grocs i vermells al mapa.

Posi el ratolí al punt desitjat per veure el nom de l'estació.

Feu clic per veure les observacions i els pronòstics meteorològics.

Per canviar el mapa: feu clic els botons verds amb una creu de color negre per apropar; al botó verd amb un guió per allunyar la imatge; o en les fletxes verdes per a mapes adjacents.


METAR-TAF: